Terminal Aerodrome Forecast
Issued by NWS

Home | Current Version | Previous Version | Text Only | Print | Product List | Glossary On
Versions: 1 2 3 4 5 6 7 8 9 10 11 12 13 14 15 16
000
FTUS44 KLZK 010500
TAFLIT
TAF
KLIT 010520Z 0106/0206 06003KT 5SM -RAPL BR SCT015 OVC050
      TEMPO 0106/0109 -FZRA
     FM010900 06003KT 5SM -RA BR SCT007 OVC030
     FM011200 06003KT 5SM -RA BR OVC007
     FM012000 04002KT 3SM BR OVC004=

USA.gov is the U.S. government's official web portal to all federal, state and local government web resources and services.